Terminal Aerodrome Forecast
Issued by NWS

Home | Current Version | Previous Version | Text Only | Print | Product List | Glossary On
Versions: 1 2 3 4 5 6 7 8 9 10 11 12 13 14
000
FTAK31 PAJN 251700
TAFAWG
TAF
PAWG 251734Z 2518/2618 11007KT P6SM -SHRA BKN035 OVC060
     FM260000 09005KT P6SM VCSH SCT025 BKN060
     FM260600 09006KT P6SM SCT030 BKN060
     FM261500 09006KT P6SM SCT050 SCT100
      AMD LTD TO CLD VIS AND WIND 2606/2615=

USA.gov is the U.S. government's official web portal to all federal, state and local government web resources and services.